sensor_id;sensor_type;location;lat;lon;timestamp;temperature;humidity
53045;DHT22;38930;52.766;6.884;2022-11-15T00:02:06;6.70;99.90
53045;DHT22;38930;52.766;6.884;2022-11-15T00:04:32;6.50;99.90
53045;DHT22;38930;52.766;6.884;2022-11-15T00:06:58;6.80;99.90
53045;DHT22;38930;52.766;6.884;2022-11-15T00:09:23;6.90;99.90
53045;DHT22;38930;52.766;6.884;2022-11-15T00:11:49;6.90;99.90
53045;DHT22;38930;52.766;6.884;2022-11-15T00:14:16;6.50;99.90
53045;DHT22;38930;52.766;6.884;2022-11-15T00:16:41;7.00;99.90
53045;DHT22;38930;52.766;6.884;2022-11-15T00:19:07;7.00;99.90
53045;DHT22;38930;52.766;6.884;2022-11-15T00:21:33;7.20;99.90
53045;DHT22;38930;52.766;6.884;2022-11-15T00:23:58;8.00;99.90
53045;DHT22;38930;52.766;6.884;2022-11-15T00:26:24;7.10;99.90
53045;DHT22;38930;52.766;6.884;2022-11-15T00:28:52;7.20;99.90
53045;DHT22;38930;52.766;6.884;2022-11-15T00:31:18;7.30;99.90
53045;DHT22;38930;52.766;6.884;2022-11-15T00:33:44;7.10;99.90
53045;DHT22;38930;52.766;6.884;2022-11-15T00:36:10;7.30;99.90
53045;DHT22;38930;52.766;6.884;2022-11-15T00:38:38;7.30;99.90
53045;DHT22;38930;52.766;6.884;2022-11-15T00:41:05;7.80;99.90
53045;DHT22;38930;52.766;6.884;2022-11-15T00:43:32;7.40;99.90
53045;DHT22;38930;52.766;6.884;2022-11-15T00:45:58;7.20;99.90
53045;DHT22;38930;52.766;6.884;2022-11-15T00:48:24;7.20;99.90
53045;DHT22;38930;52.766;6.884;2022-11-15T00:50:49;8.00;99.90
53045;DHT22;38930;52.766;6.884;2022-11-15T00:53:16;7.30;99.90
53045;DHT22;38930;52.766;6.884;2022-11-15T00:55:41;7.50;99.90
53045;DHT22;38930;52.766;6.884;2022-11-15T00:58:07;7.50;99.90
53045;DHT22;38930;52.766;6.884;2022-11-15T01:00:33;7.50;99.90
53045;DHT22;38930;52.766;6.884;2022-11-15T01:03:00;7.60;99.90
53045;DHT22;38930;52.766;6.884;2022-11-15T01:05:27;7.60;99.90
53045;DHT22;38930;52.766;6.884;2022-11-15T01:07:53;7.70;99.90
53045;DHT22;38930;52.766;6.884;2022-11-15T01:10:20;7.40;99.90
53045;DHT22;38930;52.766;6.884;2022-11-15T01:12:46;9.20;99.90
53045;DHT22;38930;52.766;6.884;2022-11-15T01:15:11;7.80;99.90
53045;DHT22;38930;52.766;6.884;2022-11-15T01:17:37;7.60;99.90
53045;DHT22;38930;52.766;6.884;2022-11-15T01:20:04;9.20;99.90
53045;DHT22;38930;52.766;6.884;2022-11-15T01:22:29;7.70;99.90
53045;DHT22;38930;52.766;6.884;2022-11-15T01:24:55;8.40;99.90
53045;DHT22;38930;52.766;6.884;2022-11-15T01:27:21;7.70;99.90
53045;DHT22;38930;52.766;6.884;2022-11-15T01:29:47;7.00;99.90
53045;DHT22;38930;52.766;6.884;2022-11-15T01:32:12;7.60;99.90
53045;DHT22;38930;52.766;6.884;2022-11-15T01:34:38;8.60;99.90
53045;DHT22;38930;52.766;6.884;2022-11-15T01:37:04;7.70;99.90
53045;DHT22;38930;52.766;6.884;2022-11-15T01:39:29;7.60;99.90
53045;DHT22;38930;52.766;6.884;2022-11-15T01:41:55;8.50;99.90
53045;DHT22;38930;52.766;6.884;2022-11-15T01:44:41;7.70;99.90
53045;DHT22;38930;52.766;6.884;2022-11-15T01:47:13;7.80;99.90
53045;DHT22;38930;52.766;6.884;2022-11-15T01:49:54;7.70;99.90
53045;DHT22;38930;52.766;6.884;2022-11-15T01:52:22;7.80;99.90
53045;DHT22;38930;52.766;6.884;2022-11-15T01:54:56;7.70;99.90
53045;DHT22;38930;52.766;6.884;2022-11-15T01:57:24;7.90;99.90
53045;DHT22;38930;52.766;6.884;2022-11-15T01:59:50;8.80;99.90
53045;DHT22;38930;52.766;6.884;2022-11-15T02:02:16;7.60;99.90
53045;DHT22;38930;52.766;6.884;2022-11-15T02:04:46;7.50;99.90
53045;DHT22;38930;52.766;6.884;2022-11-15T02:07:15;8.00;99.90
53045;DHT22;38930;52.766;6.884;2022-11-15T02:09:42;7.70;99.90
53045;DHT22;38930;52.766;6.884;2022-11-15T02:12:09;7.70;99.90
53045;DHT22;38930;52.766;6.884;2022-11-15T02:14:38;7.80;99.90
53045;DHT22;38930;52.766;6.884;2022-11-15T02:20:13;8.00;99.90
53045;DHT22;38930;52.766;6.884;2022-11-15T02:30:52;8.00;99.90
53045;DHT22;38930;52.766;6.884;2022-11-15T02:33:35;7.80;99.90
53045;DHT22;38930;52.766;6.884;2022-11-15T02:36:05;8.00;99.90
53045;DHT22;38930;52.766;6.884;2022-11-15T02:38:52;8.00;99.90
53045;DHT22;38930;52.766;6.884;2022-11-15T02:41:39;8.10;99.90
53045;DHT22;38930;52.766;6.884;2022-11-15T02:44:25;8.00;99.90
53045;DHT22;38930;52.766;6.884;2022-11-15T02:46:55;8.50;99.90
53045;DHT22;38930;52.766;6.884;2022-11-15T02:49:47;8.20;99.90
53045;DHT22;38930;52.766;6.884;2022-11-15T02:52:19;7.30;99.90
53045;DHT22;38930;52.766;6.884;2022-11-15T02:54:55;8.00;99.90
53045;DHT22;38930;52.766;6.884;2022-11-15T03:00:10;8.00;99.90
53045;DHT22;38930;52.766;6.884;2022-11-15T03:08:21;9.20;99.90
53045;DHT22;38930;52.766;6.884;2022-11-15T03:11:14;8.10;99.90
53045;DHT22;38930;52.766;6.884;2022-11-15T03:13:55;8.00;99.90
53045;DHT22;38930;52.766;6.884;2022-11-15T03:16:38;8.10;99.90
53045;DHT22;38930;52.766;6.884;2022-11-15T03:19:25;8.00;99.90
53045;DHT22;38930;52.766;6.884;2022-11-15T03:21:52;8.10;99.90
53045;DHT22;38930;52.766;6.884;2022-11-15T03:24:19;7.80;99.90
53045;DHT22;38930;52.766;6.884;2022-11-15T03:26:46;8.00;99.90
53045;DHT22;38930;52.766;6.884;2022-11-15T03:29:34;9.50;99.90
53045;DHT22;38930;52.766;6.884;2022-11-15T03:32:05;8.00;99.90
53045;DHT22;38930;52.766;6.884;2022-11-15T03:37:02;8.00;99.90
53045;DHT22;38930;52.766;6.884;2022-11-15T03:39:29;8.10;99.90
53045;DHT22;38930;52.766;6.884;2022-11-15T03:42:20;8.00;99.90
53045;DHT22;38930;52.766;6.884;2022-11-15T03:47:41;8.20;99.90
53045;DHT22;38930;52.766;6.884;2022-11-15T03:50:13;8.20;99.90
53045;DHT22;38930;52.766;6.884;2022-11-15T03:52:40;8.20;99.90
53045;DHT22;38930;52.766;6.884;2022-11-15T03:55:09;7.40;99.90
53045;DHT22;38930;52.766;6.884;2022-11-15T03:57:36;8.30;99.90
53045;DHT22;38930;52.766;6.884;2022-11-15T04:00:03;9.10;99.90
53045;DHT22;38930;52.766;6.884;2022-11-15T04:02:29;8.30;99.90
53045;DHT22;38930;52.766;6.884;2022-11-15T04:04:54;8.20;99.90
53045;DHT22;38930;52.766;6.884;2022-11-15T04:07:20;8.50;99.90
53045;DHT22;38930;52.766;6.884;2022-11-15T04:09:46;8.20;99.90
53045;DHT22;38930;52.766;6.884;2022-11-15T04:12:31;8.40;99.90
53045;DHT22;38930;52.766;6.884;2022-11-15T04:15:05;8.30;99.90
53045;DHT22;38930;52.766;6.884;2022-11-15T04:17:41;8.50;99.90
53045;DHT22;38930;52.766;6.884;2022-11-15T04:20:19;8.40;99.90
53045;DHT22;38930;52.766;6.884;2022-11-15T04:23:08;8.40;99.90
53045;DHT22;38930;52.766;6.884;2022-11-15T04:25:54;8.00;99.90
53045;DHT22;38930;52.766;6.884;2022-11-15T04:28:21;7.80;99.90
53045;DHT22;38930;52.766;6.884;2022-11-15T04:30:46;8.60;99.90
53045;DHT22;38930;52.766;6.884;2022-11-15T04:33:13;9.40;99.90
53045;DHT22;38930;52.766;6.884;2022-11-15T04:35:39;9.40;99.90
53045;DHT22;38930;52.766;6.884;2022-11-15T04:38:06;8.00;99.90
53045;DHT22;38930;52.766;6.884;2022-11-15T04:40:32;8.30;99.90
53045;DHT22;38930;52.766;6.884;2022-11-15T04:42:58;9.20;99.90
53045;DHT22;38930;52.766;6.884;2022-11-15T04:45:23;8.40;99.90
53045;DHT22;38930;52.766;6.884;2022-11-15T04:47:49;8.70;99.90
53045;DHT22;38930;52.766;6.884;2022-11-15T04:50:15;7.80;99.90
53045;DHT22;38930;52.766;6.884;2022-11-15T04:52:52;8.40;99.90
53045;DHT22;38930;52.766;6.884;2022-11-15T04:55:17;8.70;99.90
53045;DHT22;38930;52.766;6.884;2022-11-15T04:57:43;9.20;99.90
53045;DHT22;38930;52.766;6.884;2022-11-15T05:00:12;8.90;99.90
53045;DHT22;38930;52.766;6.884;2022-11-15T05:02:38;9.00;99.90
53045;DHT22;38930;52.766;6.884;2022-11-15T05:05:23;8.70;99.90
53045;DHT22;38930;52.766;6.884;2022-11-15T05:07:49;8.80;99.90
53045;DHT22;38930;52.766;6.884;2022-11-15T05:10:15;8.80;99.90
53045;DHT22;38930;52.766;6.884;2022-11-15T05:12:41;8.90;99.90
53045;DHT22;38930;52.766;6.884;2022-11-15T05:15:06;8.80;99.90
53045;DHT22;38930;52.766;6.884;2022-11-15T05:17:33;8.90;99.90
53045;DHT22;38930;52.766;6.884;2022-11-15T05:19:59;8.80;99.90
53045;DHT22;38930;52.766;6.884;2022-11-15T05:22:24;8.70;99.90
53045;DHT22;38930;52.766;6.884;2022-11-15T05:24:50;8.80;99.90
53045;DHT22;38930;52.766;6.884;2022-11-15T05:27:15;9.10;99.90
53045;DHT22;38930;52.766;6.884;2022-11-15T05:29:41;9.50;99.90
53045;DHT22;38930;52.766;6.884;2022-11-15T05:32:08;9.00;99.90
53045;DHT22;38930;52.766;6.884;2022-11-15T05:34:34;9.00;99.90
53045;DHT22;38930;52.766;6.884;2022-11-15T05:37:00;8.90;99.90
53045;DHT22;38930;52.766;6.884;2022-11-15T05:39:26;8.90;99.90
53045;DHT22;38930;52.766;6.884;2022-11-15T05:41:59;10.30;99.90
53045;DHT22;38930;52.766;6.884;2022-11-15T05:44:27;9.10;99.90
53045;DHT22;38930;52.766;6.884;2022-11-15T05:46:53;9.00;99.90
53045;DHT22;38930;52.766;6.884;2022-11-15T05:49:25;9.50;99.90
53045;DHT22;38930;52.766;6.884;2022-11-15T05:51:51;8.40;99.90
53045;DHT22;38930;52.766;6.884;2022-11-15T05:54:19;10.30;99.90
53045;DHT22;38930;52.766;6.884;2022-11-15T05:56:46;10.10;99.90
53045;DHT22;38930;52.766;6.884;2022-11-15T05:59:12;9.30;99.90
53045;DHT22;38930;52.766;6.884;2022-11-15T06:01:38;9.70;99.90
53045;DHT22;38930;52.766;6.884;2022-11-15T06:04:04;9.40;99.90
53045;DHT22;38930;52.766;6.884;2022-11-15T06:06:30;9.30;99.90
53045;DHT22;38930;52.766;6.884;2022-11-15T06:08:55;9.10;99.90
53045;DHT22;38930;52.766;6.884;2022-11-15T06:11:21;9.90;99.90
53045;DHT22;38930;52.766;6.884;2022-11-15T06:13:47;9.90;99.90
53045;DHT22;38930;52.766;6.884;2022-11-15T06:16:12;9.40;99.90
53045;DHT22;38930;52.766;6.884;2022-11-15T06:18:38;9.50;99.90
53045;DHT22;38930;52.766;6.884;2022-11-15T06:21:04;9.40;99.90
53045;DHT22;38930;52.766;6.884;2022-11-15T06:23:34;9.60;99.90
53045;DHT22;38930;52.766;6.884;2022-11-15T06:26:01;9.40;99.90
53045;DHT22;38930;52.766;6.884;2022-11-15T06:28:31;9.60;99.90
53045;DHT22;38930;52.766;6.884;2022-11-15T06:31:10;9.50;99.90
53045;DHT22;38930;52.766;6.884;2022-11-15T06:33:39;9.50;99.90
53045;DHT22;38930;52.766;6.884;2022-11-15T06:36:08;9.50;99.90
53045;DHT22;38930;52.766;6.884;2022-11-15T06:38:34;9.80;99.90
53045;DHT22;38930;52.766;6.884;2022-11-15T06:41:04;9.60;99.90
53045;DHT22;38930;52.766;6.884;2022-11-15T06:43:31;9.80;99.90
53045;DHT22;38930;52.766;6.884;2022-11-15T06:45:58;9.80;99.90
53045;DHT22;38930;52.766;6.884;2022-11-15T06:48:25;10.20;99.90
53045;DHT22;38930;52.766;6.884;2022-11-15T06:50:56;10.90;99.90
53045;DHT22;38930;52.766;6.884;2022-11-15T06:53:23;9.80;99.90
53045;DHT22;38930;52.766;6.884;2022-11-15T06:55:48;10.00;99.90
53045;DHT22;38930;52.766;6.884;2022-11-15T06:58:14;10.10;99.90
53045;DHT22;38930;52.766;6.884;2022-11-15T07:00:40;10.30;99.90
53045;DHT22;38930;52.766;6.884;2022-11-15T07:03:06;9.70;99.90
53045;DHT22;38930;52.766;6.884;2022-11-15T07:05:32;10.00;99.90
53045;DHT22;38930;52.766;6.884;2022-11-15T07:07:58;9.90;99.90
53045;DHT22;38930;52.766;6.884;2022-11-15T07:10:24;9.80;99.90
53045;DHT22;38930;52.766;6.884;2022-11-15T07:12:52;10.30;99.90
53045;DHT22;38930;52.766;6.884;2022-11-15T07:15:18;10.00;99.90
53045;DHT22;38930;52.766;6.884;2022-11-15T07:17:44;9.80;99.90
53045;DHT22;38930;52.766;6.884;2022-11-15T07:20:10;11.10;99.90
53045;DHT22;38930;52.766;6.884;2022-11-15T07:22:35;10.20;99.90
53045;DHT22;38930;52.766;6.884;2022-11-15T07:25:01;9.80;99.90
53045;DHT22;38930;52.766;6.884;2022-11-15T07:27:27;10.30;99.90
53045;DHT22;38930;52.766;6.884;2022-11-15T07:29:52;10.90;99.90
53045;DHT22;38930;52.766;6.884;2022-11-15T07:32:18;10.10;99.90
53045;DHT22;38930;52.766;6.884;2022-11-15T07:34:43;11.30;99.90
53045;DHT22;38930;52.766;6.884;2022-11-15T07:37:11;11.20;99.90
53045;DHT22;38930;52.766;6.884;2022-11-15T07:39:36;10.30;99.90
53045;DHT22;38930;52.766;6.884;2022-11-15T07:42:02;10.80;99.90
53045;DHT22;38930;52.766;6.884;2022-11-15T07:44:46;10.40;99.90
53045;DHT22;38930;52.766;6.884;2022-11-15T07:47:12;10.10;99.90
53045;DHT22;38930;52.766;6.884;2022-11-15T07:49:38;10.40;99.90
53045;DHT22;38930;52.766;6.884;2022-11-15T07:52:03;10.40;99.90
53045;DHT22;38930;52.766;6.884;2022-11-15T07:54:29;11.10;99.90
53045;DHT22;38930;52.766;6.884;2022-11-15T07:56:54;12.00;99.90
53045;DHT22;38930;52.766;6.884;2022-11-15T07:59:20;10.20;99.90
53045;DHT22;38930;52.766;6.884;2022-11-15T08:01:46;11.40;99.90
53045;DHT22;38930;52.766;6.884;2022-11-15T08:04:11;11.40;99.90
53045;DHT22;38930;52.766;6.884;2022-11-15T08:06:37;10.60;99.90
53045;DHT22;38930;52.766;6.884;2022-11-15T08:09:03;10.40;99.90
53045;DHT22;38930;52.766;6.884;2022-11-15T08:11:29;10.30;99.90
53045;DHT22;38930;52.766;6.884;2022-11-15T08:13:55;10.30;99.90
53045;DHT22;38930;52.766;6.884;2022-11-15T08:16:20;10.70;99.90
53045;DHT22;38930;52.766;6.884;2022-11-15T08:18:46;10.80;99.90
53045;DHT22;38930;52.766;6.884;2022-11-15T08:21:14;10.80;99.90
53045;DHT22;38930;52.766;6.884;2022-11-15T08:23:43;10.70;99.90
53045;DHT22;38930;52.766;6.884;2022-11-15T08:26:08;11.10;99.90
53045;DHT22;38930;52.766;6.884;2022-11-15T08:28:34;11.50;99.90
53045;DHT22;38930;52.766;6.884;2022-11-15T08:31:00;11.30;99.90
53045;DHT22;38930;52.766;6.884;2022-11-15T08:33:25;10.80;99.90
53045;DHT22;38930;52.766;6.884;2022-11-15T08:35:51;10.70;99.90
53045;DHT22;38930;52.766;6.884;2022-11-15T08:38:17;10.60;99.90
53045;DHT22;38930;52.766;6.884;2022-11-15T08:40:42;10.70;99.90
53045;DHT22;38930;52.766;6.884;2022-11-15T08:43:08;10.90;99.90
53045;DHT22;38930;52.766;6.884;2022-11-15T08:45:35;11.00;99.90
53045;DHT22;38930;52.766;6.884;2022-11-15T08:48:02;10.90;99.90
53045;DHT22;38930;52.766;6.884;2022-11-15T08:50:28;10.80;99.90
53045;DHT22;38930;52.766;6.884;2022-11-15T08:52:53;11.10;99.90
53045;DHT22;38930;52.766;6.884;2022-11-15T08:55:19;11.00;99.90
53045;DHT22;38930;52.766;6.884;2022-11-15T08:57:44;11.00;99.90
53045;DHT22;38930;52.766;6.884;2022-11-15T09:00:11;11.60;99.90
53045;DHT22;38930;52.766;6.884;2022-11-15T09:02:37;11.00;99.90
53045;DHT22;38930;52.766;6.884;2022-11-15T09:05:03;11.00;99.90
53045;DHT22;38930;52.766;6.884;2022-11-15T09:07:29;11.00;99.90
53045;DHT22;38930;52.766;6.884;2022-11-15T09:09:55;10.50;99.90
53045;DHT22;38930;52.766;6.884;2022-11-15T09:12:21;11.00;99.90
53045;DHT22;38930;52.766;6.884;2022-11-15T09:14:47;11.00;99.90
53045;DHT22;38930;52.766;6.884;2022-11-15T09:17:12;10.90;99.90
53045;DHT22;38930;52.766;6.884;2022-11-15T09:19:38;11.40;99.90
53045;DHT22;38930;52.766;6.884;2022-11-15T09:22:06;11.40;99.90
53045;DHT22;38930;52.766;6.884;2022-11-15T09:24:32;11.10;99.90
53045;DHT22;38930;52.766;6.884;2022-11-15T09:26:57;11.60;99.90
53045;DHT22;38930;52.766;6.884;2022-11-15T09:29:23;11.80;99.90
53045;DHT22;38930;52.766;6.884;2022-11-15T09:31:48;11.70;99.90
53045;DHT22;38930;52.766;6.884;2022-11-15T09:34:14;11.50;99.90
53045;DHT22;38930;52.766;6.884;2022-11-15T09:36:39;11.30;99.90
53045;DHT22;38930;52.766;6.884;2022-11-15T09:39:05;11.30;99.90
53045;DHT22;38930;52.766;6.884;2022-11-15T09:42:02;11.40;99.90
53045;DHT22;38930;52.766;6.884;2022-11-15T09:50:00;11.30;99.90
53045;DHT22;38930;52.766;6.884;2022-11-15T09:52:27;12.00;99.90
53045;DHT22;38930;52.766;6.884;2022-11-15T09:54:53;11.90;99.90
53045;DHT22;38930;52.766;6.884;2022-11-15T10:00:15;11.30;99.90
53045;DHT22;38930;52.766;6.884;2022-11-15T10:03:16;11.40;99.90
53045;DHT22;38930;52.766;6.884;2022-11-15T10:05:47;11.30;99.90
53045;DHT22;38930;52.766;6.884;2022-11-15T10:08:40;11.30;99.90
53045;DHT22;38930;52.766;6.884;2022-11-15T10:11:11;11.40;99.90
53045;DHT22;38930;52.766;6.884;2022-11-15T10:13:43;11.40;99.90
53045;DHT22;38930;52.766;6.884;2022-11-15T10:24:33;11.40;99.90
53045;DHT22;38930;52.766;6.884;2022-11-15T10:27:00;12.20;99.90
53045;DHT22;38930;52.766;6.884;2022-11-15T10:29:26;11.40;99.90
53045;DHT22;38930;52.766;6.884;2022-11-15T10:31:51;11.60;99.90
53045;DHT22;38930;52.766;6.884;2022-11-15T10:34:20;11.30;99.90
53045;DHT22;38930;52.766;6.884;2022-11-15T10:36:53;11.50;99.90
53045;DHT22;38930;52.766;6.884;2022-11-15T10:39:19;11.40;99.90
53045;DHT22;38930;52.766;6.884;2022-11-15T10:41:45;12.00;99.90
53045;DHT22;38930;52.766;6.884;2022-11-15T10:46:43;11.60;99.90
53045;DHT22;38930;52.766;6.884;2022-11-15T10:49:25;11.70;99.90
53045;DHT22;38930;52.766;6.884;2022-11-15T10:54:33;11.30;99.90
53045;DHT22;38930;52.766;6.884;2022-11-15T10:57:04;11.80;99.90
53045;DHT22;38930;52.766;6.884;2022-11-15T10:59:32;11.70;99.90
53045;DHT22;38930;52.766;6.884;2022-11-15T11:01:59;12.10;99.90
53045;DHT22;38930;52.766;6.884;2022-11-15T11:04:25;11.90;99.90
53045;DHT22;38930;52.766;6.884;2022-11-15T11:06:56;12.00;99.90
53045;DHT22;38930;52.766;6.884;2022-11-15T11:09:39;12.10;99.90
53045;DHT22;38930;52.766;6.884;2022-11-15T11:12:10;12.20;99.90
53045;DHT22;38930;52.766;6.884;2022-11-15T11:14:38;12.30;99.90
53045;DHT22;38930;52.766;6.884;2022-11-15T11:17:42;12.40;99.90
53045;DHT22;38930;52.766;6.884;2022-11-15T11:20:49;12.50;99.90
53045;DHT22;38930;52.766;6.884;2022-11-15T11:31:43;12.50;99.90
53045;DHT22;38930;52.766;6.884;2022-11-15T11:37:12;12.80;99.90
53045;DHT22;38930;52.766;6.884;2022-11-15T11:39:56;13.00;99.90
53045;DHT22;38930;52.766;6.884;2022-11-15T11:42:52;12.90;99.90
53045;DHT22;38930;52.766;6.884;2022-11-15T11:45:53;12.90;99.90
53045;DHT22;38930;52.766;6.884;2022-11-15T11:48:42;12.80;99.90
53045;DHT22;38930;52.766;6.884;2022-11-15T11:51:23;12.70;99.90
53045;DHT22;38930;52.766;6.884;2022-11-15T11:53:56;12.80;99.90
53045;DHT22;38930;52.766;6.884;2022-11-15T11:58:53;12.70;99.90
53045;DHT22;38930;52.766;6.884;2022-11-15T12:01:30;12.60;99.90
53045;DHT22;38930;52.766;6.884;2022-11-15T12:04:08;12.70;99.90
53045;DHT22;38930;52.766;6.884;2022-11-15T12:06:54;12.50;99.90
53045;DHT22;38930;52.766;6.884;2022-11-15T12:09:36;12.50;99.90
53045;DHT22;38930;52.766;6.884;2022-11-15T12:12:15;12.50;99.90
53045;DHT22;38930;52.766;6.884;2022-11-15T12:15:12;12.80;99.90
53045;DHT22;38930;52.766;6.884;2022-11-15T12:17:40;12.40;99.90
53045;DHT22;38930;52.766;6.884;2022-11-15T12:20:27;12.40;99.90
53045;DHT22;38930;52.766;6.884;2022-11-15T12:23:03;11.80;99.90
53045;DHT22;38930;52.766;6.884;2022-11-15T12:25:43;12.40;99.90
53045;DHT22;38930;52.766;6.884;2022-11-15T12:28:24;12.40;99.90
53045;DHT22;38930;52.766;6.884;2022-11-15T12:33:46;12.30;99.90
53045;DHT22;38930;52.766;6.884;2022-11-15T12:36:37;12.40;99.90
53045;DHT22;38930;52.766;6.884;2022-11-15T12:39:07;12.40;99.90
53045;DHT22;38930;52.766;6.884;2022-11-15T12:52:05;12.90;99.90
53045;DHT22;38930;52.766;6.884;2022-11-15T12:59:50;12.70;99.90
53045;DHT22;38930;52.766;6.884;2022-11-15T13:02:25;12.80;99.90
53045;DHT22;38930;52.766;6.884;2022-11-15T13:04:53;13.30;99.90
53045;DHT22;38930;52.766;6.884;2022-11-15T13:22:45;12.80;99.90
53045;DHT22;38930;52.766;6.884;2022-11-15T13:27:49;12.30;99.90
53045;DHT22;38930;52.766;6.884;2022-11-15T13:30:18;12.70;99.90
53045;DHT22;38930;52.766;6.884;2022-11-15T13:32:45;12.70;99.90
53045;DHT22;38930;52.766;6.884;2022-11-15T13:35:25;12.70;99.90
53045;DHT22;38930;52.766;6.884;2022-11-15T13:37:52;12.60;99.90
53045;DHT22;38930;52.766;6.884;2022-11-15T13:40:33;12.60;99.90
53045;DHT22;38930;52.766;6.884;2022-11-15T13:42:59;12.60;99.90
53045;DHT22;38930;52.766;6.884;2022-11-15T13:45:39;12.60;99.90
53045;DHT22;38930;52.766;6.884;2022-11-15T13:48:04;13.10;99.90
53045;DHT22;38930;52.766;6.884;2022-11-15T13:50:35;12.50;99.90
53045;DHT22;38930;52.766;6.884;2022-11-15T13:53:03;12.50;99.90
53045;DHT22;38930;52.766;6.884;2022-11-15T13:55:30;13.00;99.90
53045;DHT22;38930;52.766;6.884;2022-11-15T13:58:04;12.50;99.90
53045;DHT22;38930;52.766;6.884;2022-11-15T14:00:40;13.00;99.90
53045;DHT22;38930;52.766;6.884;2022-11-15T14:03:22;12.10;99.90
53045;DHT22;38930;52.766;6.884;2022-11-15T14:06:16;12.50;99.90
53045;DHT22;38930;52.766;6.884;2022-11-15T14:08:58;12.40;99.90
53045;DHT22;38930;52.766;6.884;2022-11-15T14:11:24;12.40;99.90
53045;DHT22;38930;52.766;6.884;2022-11-15T14:16:32;12.30;99.90
53045;DHT22;38930;52.766;6.884;2022-11-15T14:18:58;12.30;99.90
53045;DHT22;38930;52.766;6.884;2022-11-15T14:21:24;12.30;99.90
53045;DHT22;38930;52.766;6.884;2022-11-15T14:23:50;12.30;99.90
53045;DHT22;38930;52.766;6.884;2022-11-15T14:26:45;12.40;99.90
53045;DHT22;38930;52.766;6.884;2022-11-15T14:29:27;12.30;99.90
53045;DHT22;38930;52.766;6.884;2022-11-15T14:32:05;12.10;99.90
53045;DHT22;38930;52.766;6.884;2022-11-15T14:34:33;12.10;99.90
53045;DHT22;38930;52.766;6.884;2022-11-15T14:36:59;12.00;99.90
53045;DHT22;38930;52.766;6.884;2022-11-15T14:39:24;11.90;99.90
53045;DHT22;38930;52.766;6.884;2022-11-15T14:41:50;12.30;99.90
53045;DHT22;38930;52.766;6.884;2022-11-15T14:44:16;11.80;99.90
53045;DHT22;38930;52.766;6.884;2022-11-15T14:46:44;11.80;99.90
53045;DHT22;38930;52.766;6.884;2022-11-15T14:49:09;11.70;99.90
53045;DHT22;38930;52.766;6.884;2022-11-15T14:51:35;12.20;99.90
53045;DHT22;38930;52.766;6.884;2022-11-15T14:54:01;11.70;99.90
53045;DHT22;38930;52.766;6.884;2022-11-15T14:56:26;11.70;99.90
53045;DHT22;38930;52.766;6.884;2022-11-15T14:58:52;11.60;99.90
53045;DHT22;38930;52.766;6.884;2022-11-15T15:01:25;11.60;99.90
53045;DHT22;38930;52.766;6.884;2022-11-15T15:03:52;11.20;99.90
53045;DHT22;38930;52.766;6.884;2022-11-15T15:06:19;11.50;99.90
53045;DHT22;38930;52.766;6.884;2022-11-15T15:08:45;11.50;99.90
53045;DHT22;38930;52.766;6.884;2022-11-15T15:11:34;11.40;99.90
53045;DHT22;38930;52.766;6.884;2022-11-15T15:13:59;11.40;99.90
53045;DHT22;38930;52.766;6.884;2022-11-15T15:16:26;11.40;99.90
53045;DHT22;38930;52.766;6.884;2022-11-15T15:18:52;11.40;99.90
53045;DHT22;38930;52.766;6.884;2022-11-15T15:21:22;11.30;99.90
53045;DHT22;38930;52.766;6.884;2022-11-15T15:23:48;11.70;99.90
53045;DHT22;38930;52.766;6.884;2022-11-15T15:26:13;11.30;99.90
53045;DHT22;38930;52.766;6.884;2022-11-15T15:28:39;11.20;99.90
53045;DHT22;38930;52.766;6.884;2022-11-15T15:31:05;11.90;99.90
53045;DHT22;38930;52.766;6.884;2022-11-15T15:33:31;10.90;99.90
53045;DHT22;38930;52.766;6.884;2022-11-15T15:35:57;10.90;99.90
53045;DHT22;38930;52.766;6.884;2022-11-15T15:38:22;10.90;99.90
53045;DHT22;38930;52.766;6.884;2022-11-15T15:40:48;10.80;99.90
53045;DHT22;38930;52.766;6.884;2022-11-15T15:43:14;10.80;99.90
53045;DHT22;38930;52.766;6.884;2022-11-15T15:45:40;11.20;99.90
53045;DHT22;38930;52.766;6.884;2022-11-15T15:48:12;10.40;99.90
53045;DHT22;38930;52.766;6.884;2022-11-15T15:50:38;10.70;99.90
53045;DHT22;38930;52.766;6.884;2022-11-15T15:53:04;11.10;99.90
53045;DHT22;38930;52.766;6.884;2022-11-15T15:55:30;10.60;99.90
53045;DHT22;38930;52.766;6.884;2022-11-15T15:57:56;10.60;99.90
53045;DHT22;38930;52.766;6.884;2022-11-15T16:00:24;10.50;99.90
53045;DHT22;38930;52.766;6.884;2022-11-15T16:02:50;10.50;99.90
53045;DHT22;38930;52.766;6.884;2022-11-15T16:05:16;10.50;99.90
53045;DHT22;38930;52.766;6.884;2022-11-15T16:07:43;10.50;99.90
53045;DHT22;38930;52.766;6.884;2022-11-15T16:10:16;10.50;99.90
53045;DHT22;38930;52.766;6.884;2022-11-15T16:12:42;10.50;99.90
53045;DHT22;38930;52.766;6.884;2022-11-15T16:15:08;10.50;99.90
53045;DHT22;38930;52.766;6.884;2022-11-15T16:17:38;10.50;99.90
53045;DHT22;38930;52.766;6.884;2022-11-15T16:20:05;10.80;99.90
53045;DHT22;38930;52.766;6.884;2022-11-15T16:22:31;10.50;99.90
53045;DHT22;38930;52.766;6.884;2022-11-15T16:24:57;10.50;99.90
53045;DHT22;38930;52.766;6.884;2022-11-15T16:27:22;10.50;99.90
53045;DHT22;38930;52.766;6.884;2022-11-15T16:29:48;10.50;99.90
53045;DHT22;38930;52.766;6.884;2022-11-15T16:32:15;10.50;99.90
53045;DHT22;38930;52.766;6.884;2022-11-15T16:34:41;10.50;99.90
53045;DHT22;38930;52.766;6.884;2022-11-15T16:37:21;10.70;99.90
53045;DHT22;38930;52.766;6.884;2022-11-15T16:39:47;10.60;99.90
53045;DHT22;38930;52.766;6.884;2022-11-15T16:42:12;10.40;99.90
53045;DHT22;38930;52.766;6.884;2022-11-15T16:44:38;10.60;99.90
53045;DHT22;38930;52.766;6.884;2022-11-15T16:47:03;10.60;99.90
53045;DHT22;38930;52.766;6.884;2022-11-15T16:49:29;10.60;99.90
53045;DHT22;38930;52.766;6.884;2022-11-15T16:51:55;10.40;99.90
53045;DHT22;38930;52.766;6.884;2022-11-15T16:54:20;10.60;99.90
53045;DHT22;38930;52.766;6.884;2022-11-15T16:56:46;10.60;99.90
53045;DHT22;38930;52.766;6.884;2022-11-15T16:59:28;10.70;99.90
53045;DHT22;38930;52.766;6.884;2022-11-15T17:01:57;10.60;99.90
53045;DHT22;38930;52.766;6.884;2022-11-15T17:04:22;10.50;99.90
53045;DHT22;38930;52.766;6.884;2022-11-15T17:06:48;11.00;99.90
53045;DHT22;38930;52.766;6.884;2022-11-15T17:09:19;10.70;99.90
53045;DHT22;38930;52.766;6.884;2022-11-15T17:11:46;10.70;99.90
53045;DHT22;38930;52.766;6.884;2022-11-15T17:14:12;10.70;99.90
53045;DHT22;38930;52.766;6.884;2022-11-15T17:16:38;10.70;99.90
53045;DHT22;38930;52.766;6.884;2022-11-15T17:19:13;10.70;99.90
53045;DHT22;38930;52.766;6.884;2022-11-15T17:21:41;10.70;99.90
53045;DHT22;38930;52.766;6.884;2022-11-15T17:24:06;10.80;99.90
53045;DHT22;38930;52.766;6.884;2022-11-15T17:26:32;10.80;99.90
53045;DHT22;38930;52.766;6.884;2022-11-15T17:28:58;10.30;99.90
53045;DHT22;38930;52.766;6.884;2022-11-15T17:31:25;11.30;99.90
53045;DHT22;38930;52.766;6.884;2022-11-15T17:33:51;10.90;99.90